Terminal Aerodrome Forecast
Issued by NWS

Home | Current Version | Previous Version | Text Only | Print | Product List | Glossary On
Versions: 1 2 3 4 5 6 7 8 9 10 11 12 13 14 15 16 17 18 19 20 21 22 23 24 25 26 27 28 29 30 31 32 33 34 35 36 37 38 39 40 41 42 43 44 45
000
FTUS46 KOTX 271730
TAFMWH
TAF
KMWH 271730Z 2718/2818 05004KT 1/2SM -DZ FG VV002
     FM272000 35005KT 3SM BR VCFG BKN006
     FM280000 25003KT P6SM BKN012
     FM280400 29003KT P6SM BKN009=

USA.gov is the U.S. government's official web portal to all federal, state and local government web resources and services.